Time;durP1;ratioP1;P1;durP2;ratioP2;P2;SDS_P1;SDS_P2;PMS_P1;PMS_P2;Temp;Humidity;BMP_temperature;BMP_pressure;BME280_temperature;BME280_humidity;BME280_pressure;Samples;Min_cycle;Max_cycle;Signal;HPM_P1;HPM_P2
2022/05/18 00:01:10;;;;;;;2.67;1.50;;;;;;;14.52;80.67;98894.59;1680419;85;21099;-81
2022/05/18 00:03:42;;;;;;;8.63;2.33;;;;;;;14.49;81.09;98903.43;1680511;85;21051;-81
2022/05/18 00:06:10;;;;;;;4.05;1.60;;;;;;;14.51;80.60;98898.14;1705800;84;21083;-81
2022/05/18 00:08:38;;;;;;;4.05;1.70;;;;;;;14.44;80.51;98909.77;1674952;85;20972;-81
2022/05/18 00:11:13;;;;;;;5.40;1.82;;;;;;;14.38;80.24;98899.58;1689649;84;21554;-81
2022/05/18 00:13:43;;;;;;;4.55;1.60;;;;;;;14.36;79.42;98904.88;1709674;84;20996;-82
2022/05/18 00:16:10;;;;;;;3.62;1.50;;;;;;;14.30;79.61;98885.53;1709340;84;21039;-82
2022/05/18 00:18:37;;;;;;;4.62;1.35;;;;;;;14.24;79.19;98885.80;1710435;84;21027;-81
2022/05/18 00:21:06;;;;;;;2.17;1.30;;;;;;;14.26;78.45;98882.66;1707255;84;21102;-82
2022/05/18 00:23:33;;;;;;;4.25;1.50;;;;;;;14.22;78.41;98891.09;1710087;82;21102;-81
2022/05/18 00:26:00;;;;;;;2.47;1.20;;;;;;;14.20;79.17;98890.77;1709632;84;21098;-82
2022/05/18 00:28:28;;;;;;;2.65;1.45;;;;;;;14.17;78.75;98896.99;1709648;84;21022;-80
2022/05/18 00:30:54;;;;;;;3.02;1.20;;;;;;;14.16;79.14;98894.44;1709414;84;21134;-81
2022/05/18 00:33:22;;;;;;;1.82;1.15;;;;;;;14.16;78.86;98900.50;1676605;84;20964;-81
2022/05/18 00:35:48;;;;;;;4.55;1.45;;;;;;;14.16;78.52;98907.05;1701444;84;21578;-82
2022/05/18 00:38:15;;;;;;;2.98;1.50;;;;;;;14.15;78.56;98913.67;1705764;84;21011;-81
2022/05/18 00:40:46;;;;;;;2.80;1.30;;;;;;;14.10;78.03;98923.83;1706871;84;21043;-81
2022/05/18 00:43:30;;;;;;;2.90;1.40;;;;;;;14.12;77.69;98925.95;1675391;85;20964;-81
2022/05/18 00:46:02;;;;;;;;;;;;;;;14.06;78.04;98923.57;1676649;86;21109;-81
2022/05/18 00:48:29;;;;;;;2.67;1.32;;;;;;;14.04;77.49;98929.33;1675177;86;20161;-80
2022/05/18 00:50:59;;;;;;;2.30;1.20;;;;;;;14.02;77.46;98931.62;1674908;86;21070;-81
2022/05/18 00:53:34;;;;;;;3.98;1.45;;;;;;;14.00;77.70;98931.67;1675072;85;21065;-81
2022/05/18 00:56:14;;;;;;;2.45;1.20;;;;;;;13.99;77.49;98936.52;1644348;87;20990;-81
2022/05/18 00:58:53;;;;;;;8.45;1.20;;;;;;;13.95;78.53;98928.42;1675526;86;20993;-81
2022/05/18 01:01:20;;;;;;;2.35;1.22;;;;;;;13.95;78.18;98924.94;1645754;87;21027;-81
2022/05/18 01:03:51;;;;;;;6.28;1.30;;;;;;;13.96;78.12;98929.27;1675336;86;21091;-81
2022/05/18 01:06:32;;;;;;;5.15;1.17;;;;;;;13.92;78.90;98928.06;1626636;87;21063;-81
2022/05/18 01:09:15;;;;;;;2.65;1.52;;;;;;;13.94;78.67;98928.01;1622153;87;21043;-80
2022/05/18 01:11:42;;;;;;;;;;;;;;;13.95;79.04;98928.42;1678042;86;20999;-80
2022/05/18 01:14:19;;;;;;;2.80;1.10;;;;;;;13.95;78.60;98927.55;1642890;87;20163;-82
2022/05/18 01:16:47;;;;;;;5.15;1.25;;;;;;;13.91;78.64;98939.45;1675363;86;21043;-81
2022/05/18 01:19:38;;;;;;;4.00;1.30;;;;;;;13.88;79.17;98951.32;1645907;86;21099;-81
2022/05/18 01:22:22;;;;;;;2.50;1.25;;;;;;;13.90;78.94;98957.80;1658268;86;21046;-81
2022/05/18 01:25:27;;;;;;;2.77;1.75;;;;;;;13.88;79.31;98967.47;1691934;84;21578;-81
2022/05/18 01:27:57;;;;;;;4.28;1.40;;;;;;;13.86;79.67;98963.59;1682788;85;21054;-81
2022/05/18 01:30:25;;;;;;;3.08;1.40;;;;;;;13.88;79.92;98972.69;1641948;87;21570;-81
2022/05/18 01:32:55;;;;;;;2.30;1.45;;;;;;;13.87;80.94;98981.00;1680005;84;21059;-82
2022/05/18 01:35:27;;;;;;;2.55;1.40;;;;;;;13.85;80.74;98974.98;1684828;84;20960;-81
2022/05/18 01:37:57;;;;;;;2.72;1.30;;;;;;;13.86;80.75;98969.30;1684682;84;21047;-81
2022/05/18 01:40:53;;;;;;;4.28;1.72;;;;;;;13.86;80.91;98978.44;1684776;84;21602;-82
2022/05/18 01:43:37;;;;;;;2.95;1.40;;;;;;;13.90;80.30;98983.93;1684794;84;21074;-81
2022/05/18 01:46:09;;;;;;;5.08;1.60;;;;;;;13.90;80.86;98980.02;1684992;85;21598;-81
2022/05/18 01:48:40;;;;;;;6.53;1.42;;;;;;;13.93;81.13;98982.52;1688011;84;21004;-82
2022/05/18 01:51:09;;;;;;;3.15;1.40;;;;;;;13.94;81.31;98998.58;1685161;85;21055;-81
2022/05/18 01:53:36;;;;;;;3.60;1.90;;;;;;;13.91;80.65;99001.33;1665952;85;21037;-81
2022/05/18 01:56:04;;;;;;;3.00;1.60;;;;;;;13.90;81.21;99008.76;1678719;85;21087;-81
2022/05/18 01:58:31;;;;;;;3.35;1.57;;;;;;;13.91;81.21;99006.55;1672737;84;21056;-81
2022/05/18 02:00:58;;;;;;;4.37;1.62;;;;;;;13.88;81.22;99015.34;1684892;85;21007;-81
2022/05/18 02:03:25;;;;;;;3.67;1.55;;;;;;;13.86;81.33;99017.17;1657027;85;21158;-81
2022/05/18 02:05:53;;;;;;;3.58;1.60;;;;;;;13.85;81.19;99014.64;1684665;85;21570;-81
2022/05/18 02:08:21;;;;;;;2.80;1.60;;;;;;;13.82;80.48;99018.67;1683559;85;21539;-82
2022/05/18 02:10:49;;;;;;;2.77;1.55;;;;;;;13.80;81.38;99016.58;1681535;84;21571;-81
2022/05/18 02:13:17;;;;;;;2.20;1.22;;;;;;;13.74;82.56;99021.58;1685460;85;21007;-82
2022/05/18 02:15:44;;;;;;;4.78;1.70;;;;;;;13.70;81.52;99018.23;1685001;85;21039;-81
2022/05/18 02:18:11;;;;;;;3.02;1.52;;;;;;;13.65;81.95;99026.72;1685224;85;21538;-81
2022/05/18 02:20:39;;;;;;;4.00;1.50;;;;;;;13.64;81.66;99036.76;1685546;85;21015;-81
2022/05/18 02:23:07;;;;;;;2.83;1.72;;;;;;;13.64;80.74;99040.67;1685396;85;21090;-82
2022/05/18 02:25:37;;;;;;;5.83;1.82;;;;;;;13.62;81.12;99045.57;1681677;85;21093;-82
2022/05/18 02:28:05;;;;;;;2.80;1.55;;;;;;;13.59;81.74;99046.55;1681449;85;21043;-80
2022/05/18 02:30:32;;;;;;;4.22;1.70;;;;;;;13.59;81.76;99045.67;1680156;85;21164;-81
2022/05/18 02:32:59;;;;;;;3.35;1.60;;;;;;;13.54;81.94;99043.25;1680353;85;21673;-81
2022/05/18 02:35:26;;;;;;;2.20;1.40;;;;;;;13.55;82.16;99052.80;1680939;85;21027;-81
2022/05/18 02:37:53;;;;;;;6.40;1.62;;;;;;;13.53;82.37;99054.16;1680307;85;21067;-81
2022/05/18 02:40:20;;;;;;;5.55;1.30;;;;;;;13.56;82.06;99064.09;1671755;85;20999;-82
2022/05/18 02:42:46;;;;;;;2.92;1.30;;;;;;;13.51;82.11;99062.97;1669662;85;21023;-83
2022/05/18 02:45:13;;;;;;;1.72;1.25;;;;;;;13.52;81.97;99062.89;1674876;85;21057;-83
2022/05/18 02:47:40;;;;;;;3.22;1.50;;;;;;;13.59;81.69;99065.27;1697943;84;21007;-83
2022/05/18 02:50:08;;;;;;;3.35;1.40;;;;;;;13.54;81.60;99061.53;1711398;84;21048;-82
2022/05/18 02:52:36;;;;;;;2.67;1.47;;;;;;;13.56;81.41;99068.85;1711065;84;21071;-80
2022/05/18 02:57:50;;;;;;;6.47;1.45;;;;;;;13.59;81.46;99075.28;1691380;84;21074;-82
2022/05/18 03:00:17;;;;;;;4.75;1.87;;;;;;;13.60;82.03;99073.52;1704756;84;21028;-82
2022/05/18 03:02:43;;;;;;;4.60;1.72;;;;;;;13.63;81.81;99074.25;1701522;79;21572;-81
2022/05/18 03:05:10;;;;;;;5.33;1.90;;;;;;;13.64;82.17;99069.88;1684649;84;20973;-82
2022/05/18 03:07:37;;;;;;;5.37;2.00;;;;;;;13.66;82.12;99076.73;1705380;84;20995;-81
2022/05/18 03:10:06;;;;;;;3.35;1.92;;;;;;;13.66;81.99;99076.73;1694432;84;21079;-82
2022/05/18 03:12:32;;;;;;;6.17;2.15;;;;;;;13.66;82.36;99078.04;1686474;84;20988;-82
2022/05/18 03:14:59;;;;;;;6.30;2.40;;;;;;;13.66;82.38;99082.42;1680567;85;21050;-82
2022/05/18 03:17:25;;;;;;;6.30;2.33;;;;;;;13.64;82.51;99092.08;1701053;84;21050;-81
2022/05/18 03:19:52;;;;;;;5.72;2.10;;;;;;;13.60;82.73;99101.78;1705633;84;21051;-82
2022/05/18 03:25:05;;;;;;;4.25;2.15;;;;;;;13.56;82.25;99108.03;1673212;85;21101;-83
2022/05/18 03:27:32;;;;;;;5.92;2.17;;;;;;;13.52;82.53;99109.05;1663241;86;21004;-83
2022/05/18 03:29:59;;;;;;;3.12;1.80;;;;;;;13.50;82.80;99123.93;1676131;85;21000;-81
2022/05/18 03:32:25;;;;;;;7.95;1.90;;;;;;;13.51;81.52;99125.66;1644011;87;21023;-81
2022/05/18 03:34:52;;;;;;;6.03;2.10;;;;;;;13.49;82.36;99128.31;1656535;87;21079;-82
2022/05/18 03:37:19;;;;;;;6.00;1.67;;;;;;;13.49;81.56;99128.31;1664939;86;21044;-82
2022/05/18 03:39:46;;;;;;;4.83;2.47;;;;;;;13.50;81.25;99126.08;1660396;86;21042;-82
2022/05/18 03:42:13;;;;;;;7.15;1.72;;;;;;;13.53;81.57;99119.45;1656777;87;21039;-82
2022/05/18 03:44:40;;;;;;;3.00;1.90;;;;;;;13.59;81.46;99131.87;1656691;87;21151;-81
2022/05/18 03:47:07;;;;;;;4.45;1.62;;;;;;;13.61;81.63;99133.55;1637831;87;21074;-82
2022/05/18 03:49:34;;;;;;;4.78;1.90;;;;;;;13.65;81.45;99140.36;1645431;87;21073;-82
2022/05/18 03:52:01;;;;;;;4.30;1.87;;;;;;;13.69;81.60;99148.48;1630445;87;21069;-83
2022/05/18 03:54:28;;;;;;;3.67;2.10;;;;;;;13.74;81.14;99145.69;1648837;87;21075;-82
2022/05/18 03:56:54;;;;;;;4.45;1.67;;;;;;;13.82;81.18;99151.94;1656654;87;21078;-83
2022/05/18 03:59:21;;;;;;;4.75;1.77;;;;;;;13.89;80.91;99149.50;1656707;86;21310;-83
2022/05/18 04:01:48;;;;;;;2.98;1.62;;;;;;;13.95;80.66;99160.16;1654591;87;21023;-83
2022/05/18 04:04:14;;;;;;;5.05;2.10;;;;;;;13.98;80.32;99158.28;1636539;87;21559;-83
2022/05/18 04:06:41;;;;;;;8.48;2.15;;;;;;;14.02;79.99;99157.71;1652960;87;21019;-83
2022/05/18 04:09:07;;;;;;;4.00;2.15;;;;;;;14.03;79.43;99166.81;1638455;86;21630;-82
2022/05/18 04:11:34;;;;;;;9.43;2.55;;;;;;;14.08;79.38;99174.47;1657175;87;21038;-83
2022/05/18 04:14:00;;;;;;;4.92;2.52;;;;;;;14.10;79.21;99181.33;1657474;87;20984;-83
2022/05/18 04:16:27;;;;;;;3.95;2.27;;;;;;;14.14;79.15;99179.45;1657113;87;21110;-83
2022/05/18 04:18:54;;;;;;;7.42;2.12;;;;;;;14.16;79.04;99192.02;1657096;86;21049;-83
2022/05/18 04:21:21;;;;;;;5.92;2.50;;;;;;;14.18;78.63;99190.66;1657153;87;20988;-82
2022/05/18 04:23:49;;;;;;;3.98;2.25;;;;;;;14.17;78.09;99195.51;1656399;86;21126;-83
2022/05/18 04:26:16;;;;;;;3.65;2.00;;;;;;;14.18;78.29;99194.58;1690301;84;21095;-83
2022/05/18 04:28:43;;;;;;;5.75;2.72;;;;;;;14.20;78.56;99197.98;1683982;85;21139;-83
2022/05/18 04:31:10;;;;;;;6.20;2.20;;;;;;;14.17;78.66;99192.89;1662067;85;21060;-83
2022/05/18 04:33:37;;;;;;;7.40;2.40;;;;;;;14.29;77.91;99206.80;1654072;87;21034;-83
2022/05/18 04:36:04;;;;;;;5.72;2.22;;;;;;;14.29;78.27;99207.64;1698176;84;21103;-82
2022/05/18 04:38:32;;;;;;;5.58;2.50;;;;;;;14.37;77.62;99213.89;1698190;84;21003;-82
2022/05/18 04:40:59;;;;;;;6.15;2.33;;;;;;;14.41;78.09;99208.09;1698124;84;21027;-81
2022/05/18 04:43:26;;;;;;;5.75;2.40;;;;;;;14.50;78.06;99209.02;1698410;84;20972;-83
2022/05/18 04:45:55;;;;;;;4.62;2.35;;;;;;;14.61;77.99;99208.64;1697777;84;21165;-82
2022/05/18 04:48:24;;;;;;;6.33;2.72;;;;;;;14.63;77.84;99201.12;1697591;84;20964;-81
2022/05/18 04:50:51;;;;;;;4.20;2.30;;;;;;;14.74;76.87;99210.30;1697644;84;21064;-83
2022/05/18 04:53:19;;;;;;;5.33;2.33;;;;;;;14.81;77.21;99199.98;1697644;84;21074;-82
2022/05/18 04:55:48;;;;;;;8.35;2.10;;;;;;;14.87;77.08;99211.05;1697476;85;21024;-83
2022/05/18 04:58:15;;;;;;;10.23;2.25;;;;;;;14.94;77.25;99219.52;1697796;84;21555;-82
2022/05/18 05:00:44;;;;;;;8.75;2.00;;;;;;;15.02;77.44;99215.25;1674124;84;21050;-81
2022/05/18 05:03:11;;;;;;;6.58;2.22;;;;;;;15.13;77.04;99223.99;1680777;84;21055;-82
2022/05/18 05:05:39;;;;;;;6.00;2.45;;;;;;;15.11;76.41;99224.89;1695563;84;21012;-81
2022/05/18 05:08:06;;;;;;;5.45;2.70;;;;;;;15.13;76.49;99226.14;1678122;85;21067;-82
2022/05/18 05:10:32;;;;;;;5.75;2.55;;;;;;;15.15;74.84;99236.56;1685883;85;21051;-82
2022/05/18 05:12:59;;;;;;;8.53;2.77;;;;;;;15.19;75.18;99235.05;1681774;85;21000;-81
2022/05/18 05:15:26;;;;;;;7.62;2.75;;;;;;;15.22;74.81;99241.92;1678810;85;21086;-82
2022/05/18 05:17:52;;;;;;;8.53;3.12;;;;;;;15.19;72.86;99252.07;1710936;83;20956;-81
2022/05/18 05:20:19;;;;;;;9.03;2.67;;;;;;;15.22;72.66;99259.81;1703670;83;21099;-82
2022/05/18 05:22:46;;;;;;;5.33;2.30;;;;;;;15.15;72.05;99252.27;1707793;82;21068;-83
2022/05/18 05:25:14;;;;;;;4.83;2.58;;;;;;;15.22;71.17;99262.87;1712569;83;21038;-83
2022/05/18 05:27:41;;;;;;;6.72;3.10;;;;;;;15.27;71.30;99266.16;1718187;83;21464;-82
2022/05/18 05:30:10;;;;;;;8.28;2.52;;;;;;;15.34;71.22;99278.53;1717563;83;21114;-82
2022/05/18 05:32:37;;;;;;;9.55;2.50;;;;;;;15.39;69.85;99276.13;1717708;83;21660;-82
2022/05/18 05:35:05;;;;;;;6.53;2.47;;;;;;;15.41;69.15;99291.78;1718371;83;21007;-82
2022/05/18 05:37:32;;;;;;;10.05;2.52;;;;;;;15.39;68.57;99285.76;1714807;83;21064;-81
2022/05/18 05:39:58;;;;;;;6.85;1.90;;;;;;;15.34;67.33;99286.39;1717912;83;21541;-83
2022/05/18 05:42:25;;;;;;;4.50;2.17;;;;;;;15.32;67.72;99287.80;1718338;83;21310;-82
2022/05/18 05:44:52;;;;;;;11.18;2.47;;;;;;;15.37;68.47;99290.21;1688989;85;21018;-83
2022/05/18 05:47:19;;;;;;;6.25;2.05;;;;;;;15.39;69.05;99291.00;1689340;85;21491;-80
2022/05/18 05:49:46;;;;;;;4.03;1.95;;;;;;;15.46;68.98;99289.84;1715525;83;21507;-83
2022/05/18 05:52:13;;;;;;;7.20;2.00;;;;;;;15.51;65.14;99312.75;1717581;83;21058;-82
2022/05/18 05:54:40;;;;;;;5.15;1.90;;;;;;;15.53;62.82;99295.19;1721436;82;21018;-83
2022/05/18 05:57:07;;;;;;;9.68;2.42;;;;;;;15.45;63.50;99297.29;1722464;82;20975;-84
2022/05/18 05:59:36;;;;;;;10.68;2.30;;;;;;;15.47;62.69;99302.84;1712011;83;21277;-83
2022/05/18 06:02:08;;;;;;;3.08;1.77;;;;;;;15.48;63.31;99308.97;1708037;83;21050;-82
2022/05/18 06:04:36;;;;;;;5.65;2.15;;;;;;;15.43;61.57;99305.67;1708185;83;21046;-82
2022/05/18 06:07:04;;;;;;;8.28;2.15;;;;;;;15.36;60.89;99321.23;1708241;83;21042;-82
2022/05/18 06:09:31;;;;;;;3.67;1.80;;;;;;;15.32;61.71;99324.46;1715475;83;21068;-82
2022/05/18 06:11:57;;;;;;;8.00;1.92;;;;;;;15.35;61.94;99320.86;1712336;83;21024;-82
2022/05/18 06:14:24;;;;;;;4.37;1.70;;;;;;;15.31;60.03;99341.92;1715633;83;20996;-81
2022/05/18 06:16:50;;;;;;;4.33;2.02;;;;;;;15.27;59.64;99333.80;1674979;85;21043;-82
2022/05/18 06:19:18;;;;;;;4.55;1.67;;;;;;;15.22;59.82;99350.17;1708704;83;21030;-82
2022/05/18 06:21:50;;;;;;;7.08;1.80;;;;;;;15.17;57.72;99344.25;1712368;83;21043;-82
2022/05/18 06:24:15;;;;;;;8.98;2.60;;;;;;;15.15;58.08;99343.47;1713737;83;21123;-81
2022/05/18 06:26:43;;;;;;;2.55;1.70;;;;;;;15.13;57.94;99354.92;1704721;83;21039;-83
2022/05/18 06:29:11;;;;;;;5.08;1.72;;;;;;;15.11;56.71;99344.50;1715425;83;21069;-81
2022/05/18 06:31:38;;;;;;;5.20;1.90;;;;;;;15.09;56.30;99363.34;1689042;83;21126;-83
2022/05/18 06:34:04;;;;;;;6.58;1.80;;;;;;;15.05;56.86;99361.77;1704596;83;21088;-82
2022/05/18 06:39:11;;;;;;;3.45;1.87;;;;;;;15.03;56.26;99372.75;1730801;81;21594;-82
2022/05/18 06:41:38;;;;;;;9.45;1.95;;;;;;;15.08;56.32;99370.79;1741723;81;21387;-80
2022/05/18 06:44:05;;;;;;;10.75;1.90;;;;;;;15.13;56.91;99371.48;1743466;81;21522;-80
2022/05/18 06:46:36;;;;;;;4.70;1.80;;;;;;;15.18;57.34;99381.33;1749207;81;21114;-81
2022/05/18 06:49:05;;;;;;;5.42;1.92;;;;;;;15.19;56.42;99381.70;1716748;82;21170;-81
2022/05/18 06:51:36;;;;;;;12.80;3.70;;;;;;;15.22;55.40;99392.08;1720615;81;21038;-82
2022/05/18 06:54:05;;;;;;;2.65;1.60;;;;;;;15.26;57.95;99385.80;1734036;81;21039;-81
2022/05/18 06:56:38;;;;;;;12.70;2.02;;;;;;;15.33;55.68;99406.52;1711110;83;21812;-85
2022/05/18 06:59:06;;;;;;;8.55;2.45;;;;;;;15.33;56.70;99393.41;1735581;82;21095;-81
2022/05/18 07:01:33;;;;;;;5.33;1.80;;;;;;;15.34;56.70;99411.70;1721089;81;21078;-82
2022/05/18 07:04:00;;;;;;;5.42;1.75;;;;;;;15.38;56.50;99408.47;1749807;81;21012;-85
2022/05/18 07:06:32;;;;;;;4.65;1.70;;;;;;;15.36;56.06;99416.85;1727535;82;21031;-83
2022/05/18 07:09:00;;;;;;;3.80;1.90;;;;;;;15.39;57.15;99413.66;1722891;82;21094;-83
2022/05/18 07:11:29;;;;;;;5.65;2.00;;;;;;;15.46;54.22;99429.55;1737974;81;21129;-83
2022/05/18 07:13:58;;;;;;;6.92;1.77;;;;;;;15.41;55.46;99435.88;1743233;81;21008;-83
2022/05/18 07:16:27;;;;;;;7.53;1.75;;;;;;;15.39;54.25;99445.09;1751846;81;21046;-83
2022/05/18 07:18:55;;;;;;;4.12;1.47;;;;;;;15.41;50.92;99456.83;1735613;81;20988;-82
2022/05/18 07:21:22;;;;;;;5.95;1.57;;;;;;;15.45;50.23;99456.64;1737762;81;21027;-83
2022/05/18 07:23:49;;;;;;;6.67;1.70;;;;;;;15.44;49.95;99456.73;1723940;82;20980;-82
2022/05/18 07:26:17;;;;;;;4.45;1.27;;;;;;;15.46;48.10;99470.62;1724979;81;21035;-81
2022/05/18 07:28:44;;;;;;;3.55;1.30;;;;;;;15.44;47.44;99462.81;1689512;82;21011;-83
2022/05/18 07:31:11;;;;;;;2.60;1.42;;;;;;;15.39;42.77;99471.30;1710335;83;21004;-83
2022/05/18 07:33:38;;;;;;;5.92;1.50;;;;;;;15.45;44.34;99485.47;1703764;82;20959;-83
2022/05/18 07:36:06;;;;;;;5.75;1.90;;;;;;;15.50;41.04;99492.70;1757104;81;21005;-82
2022/05/18 07:38:34;;;;;;;3.52;1.45;;;;;;;15.54;42.83;99504.36;1753203;81;21597;-82
2022/05/18 07:41:02;;;;;;;7.50;1.85;;;;;;;15.53;44.09;99498.27;1734976;81;21114;-83
2022/05/18 07:43:29;;;;;;;6.92;2.12;;;;;;;15.55;44.46;99514.78;1719651;83;21023;-83
2022/05/18 07:45:56;;;;;;;9.58;1.65;;;;;;;15.60;44.56;99514.16;1718342;82;21028;-83
2022/05/18 07:48:24;;;;;;;3.55;1.40;;;;;;;15.59;43.77;99516.38;1722462;82;21056;-82
2022/05/18 07:50:51;;;;;;;7.37;1.42;;;;;;;15.65;40.84;99520.06;1713220;82;21590;-82
2022/05/18 07:53:20;;;;;;;2.90;1.42;;;;;;;15.58;40.90;99534.33;1708846;82;21268;-83
2022/05/18 07:55:47;;;;;;;3.87;1.50;;;;;;;15.58;43.13;99525.16;1714733;82;21016;-81
2022/05/18 07:58:16;;;;;;;3.20;1.45;;;;;;;15.59;42.54;99528.63;1739091;82;21054;-83
2022/05/18 08:00:44;;;;;;;2.40;1.42;;;;;;;15.58;42.18;99539.58;1722625;82;21039;-83
2022/05/18 08:03:12;;;;;;;2.92;1.40;;;;;;;15.62;39.18;99550.80;1716381;82;21064;-82
2022/05/18 08:05:42;;;;;;;6.85;1.62;;;;;;;15.64;40.14;99545.89;1722350;82;20996;-82
2022/05/18 08:08:13;;;;;;;7.47;1.82;;;;;;;15.70;38.88;99550.05;1739541;82;21091;-82
2022/05/18 08:16:13;;;;;;;5.78;1.50;;;;;;;15.69;40.07;99568.83;1725992;82;21097;-82
2022/05/18 08:18:40;;;;;;;2.80;1.50;;;;;;;15.67;39.02;99569.81;1706072;82;21024;-83
2022/05/18 08:21:07;;;;;;;5.95;1.50;;;;;;;15.67;39.61;99585.06;1730146;82;21063;-83
2022/05/18 08:23:33;;;;;;;6.53;1.27;;;;;;;15.70;40.94;99588.05;1715777;82;21024;-82
2022/05/18 08:26:01;;;;;;;3.40;1.30;;;;;;;15.75;41.67;99601.00;1710653;82;21555;-81
2022/05/18 08:28:28;;;;;;;6.28;1.62;;;;;;;15.71;40.21;99593.21;1709852;83;21040;-83
2022/05/18 08:30:55;;;;;;;9.85;1.60;;;;;;;15.71;39.04;99601.54;1718435;83;21002;-83
2022/05/18 08:33:22;;;;;;;5.83;1.60;;;;;;;15.72;39.49;99603.27;1720071;82;21135;-82
2022/05/18 08:35:49;;;;;;;3.60;1.85;;;;;;;15.74;39.79;99623.75;1718352;82;21007;-82
2022/05/18 08:38:17;;;;;;;2.55;1.35;;;;;;;15.77;38.44;99604.42;1705536;82;21035;-83
2022/05/18 08:41:07;;;;;;;3.90;1.47;;;;;;;15.76;39.13;99600.11;1691932;83;21069;-85
2022/05/18 08:43:39;;;;;;;7.10;1.60;;;;;;;15.84;39.53;99608.06;1729516;81;21090;-80
2022/05/18 08:46:44;;;;;;;3.92;1.30;;;;;;;15.93;38.86;99608.16;1755523;81;21057;-80
2022/05/18 08:49:24;;;;;;;2.98;1.32;;;;;;;15.90;39.92;99626.17;1719738;81;20985;-82
2022/05/18 08:52:20;;;;;;;2.65;1.45;;;;;;;16.05;40.33;99621.24;1731288;82;21011;-82
2022/05/18 08:55:01;;;;;;;2.52;1.20;;;;;;;16.07;40.46;99622.88;1722695;82;21038;-83
2022/05/18 08:57:33;;;;;;;7.05;1.40;;;;;;;16.06;39.83;99636.92;1729860;82;20983;-80
2022/05/18 09:00:15;;;;;;;2.80;1.25;;;;;;;16.04;39.92;99640.53;1732922;82;21110;-82
2022/05/18 09:02:44;;;;;;;5.42;1.82;;;;;;;15.94;41.36;99638.72;1738237;81;20999;-82
2022/05/18 09:05:25;;;;;;;9.50;1.30;;;;;;;15.98;41.58;99654.73;1732202;82;21019;-82
2022/05/18 09:08:19;;;;;;;6.60;1.52;;;;;;;15.98;39.86;99646.02;1744262;82;21070;-82
2022/05/18 09:11:07;;;;;;;5.67;1.47;;;;;;;16.07;40.38;99645.64;1726621;82;21007;-82
2022/05/18 09:13:34;;;;;;;8.63;1.70;;;;;;;16.15;39.40;99646.66;1733873;82;21342;-83
2022/05/18 09:16:22;;;;;;;3.47;1.42;;;;;;;16.20;38.64;99656.53;1736524;82;20996;-83
2022/05/18 09:19:06;;;;;;;5.35;1.30;;;;;;;16.17;37.83;99670.59;1703247;83;21043;-84
2022/05/18 09:22:01;;;;;;;4.17;1.30;;;;;;;16.06;38.09;99659.22;1708273;83;21004;-83
2022/05/18 09:24:36;;;;;;;6.62;1.82;;;;;;;16.14;35.63;99675.13;1690719;83;20996;-83
2022/05/18 09:27:46;;;;;;;5.78;2.05;;;;;;;16.25;36.97;99674.23;1640258;84;21398;-82
2022/05/18 09:30:24;;;;;;;6.47;1.72;;;;;;;16.32;36.35;99674.41;1686299;84;21023;-83
2022/05/18 09:33:31;;;;;;;7.50;1.45;;;;;;;16.44;37.29;99674.38;1688330;84;21048;-82
2022/05/18 09:36:36;;;;;;;6.58;1.60;;;;;;;16.48;34.19;99684.68;1676674;84;21420;-82
2022/05/18 09:39:11;;;;;;;6.15;1.47;;;;;;;16.56;35.36;99684.84;1685485;83;21027;-82
2022/05/18 09:41:52;;;;;;;4.58;1.35;;;;;;;16.58;33.53;99696.98;1686146;84;21138;-81
2022/05/18 09:44:30;;;;;;;2.75;1.32;;;;;;;16.62;34.43;99681.97;1689123;84;21042;-82
2022/05/18 09:47:00;;;;;;;11.85;6.95;;;;;;;16.75;35.40;99698.94;1689188;84;21044;-83
2022/05/18 09:49:43;;;;;;;4.67;1.77;;;;;;;16.82;35.57;99703.50;1718790;82;21007;-80
2022/05/18 09:52:11;;;;;;;3.85;1.30;;;;;;;16.82;33.93;99689.91;1726557;83;21038;-83
2022/05/18 09:54:39;;;;;;;6.53;1.15;;;;;;;16.92;32.20;99698.26;1728719;82;21003;-82
2022/05/18 09:57:36;;;;;;;5.83;1.35;;;;;;;16.93;31.29;99697.36;1722016;82;21030;-82
2022/05/18 10:00:13;;;;;;;3.12;1.20;;;;;;;16.89;31.09;99710.19;1715988;83;21042;-81
2022/05/18 10:08:30;;;;;;;7.37;1.52;;;;;;;16.90;32.53;99708.82;1691989;84;21050;-80
2022/05/18 10:11:02;;;;;;;4.72;1.40;;;;;;;16.98;33.53;99709.82;1709634;82;21108;-80
2022/05/18 10:13:33;;;;;;;2.90;1.50;;;;;;;17.07;34.86;99705.97;1710865;82;21586;-82
2022/05/18 10:16:14;;;;;;;9.30;1.30;;;;;;;17.15;31.28;99723.58;1722515;83;21139;-82
2022/05/18 10:18:51;;;;;;;5.42;1.57;;;;;;;17.07;31.40;99713.86;1710951;83;20979;-82
2022/05/18 10:21:41;;;;;;;5.28;1.77;;;;;;;17.06;33.13;99723.48;1668378;84;20993;-81
2022/05/18 10:24:47;;;;;;;2.77;1.20;;;;;;;17.16;33.87;99719.17;1695960;84;21303;-83
2022/05/18 10:27:30;;;;;;;3.72;1.30;;;;;;;17.24;33.06;99731.05;1670528;85;21042;-82
2022/05/18 10:30:19;;;;;;;2.30;1.10;;;;;;;17.19;31.59;99731.72;1703182;83;21363;-83
2022/05/18 10:33:07;;;;;;;3.42;1.40;;;;;;;17.16;31.02;99733.15;1680158;85;21546;-82
2022/05/18 10:35:46;;;;;;;3.55;1.30;;;;;;;17.24;31.50;99732.83;1681119;84;21045;-83
2022/05/18 10:38:30;;;;;;;5.58;1.10;;;;;;;17.42;31.81;99737.77;1695390;82;21096;-84
2022/05/18 10:41:11;;;;;;;4.00;1.30;;;;;;;17.48;31.21;99724.35;1736250;82;21023;-83
2022/05/18 10:43:43;;;;;;;5.40;1.10;;;;;;;17.61;31.57;99738.67;1755680;81;21031;-82
2022/05/18 10:46:29;;;;;;;4.55;1.47;;;;;;;17.64;31.45;99741.63;1757561;81;21045;-81
2022/05/18 10:49:28;;;;;;;5.45;1.20;;;;;;;17.67;28.26;99742.35;1728146;81;21048;-83
2022/05/18 10:52:05;;;;;;;5.83;1.25;;;;;;;17.78;30.50;99744.96;1745302;81;21070;-82
2022/05/18 10:54:33;;;;;;;7.10;1.52;;;;;;;17.84;30.44;99736.83;1749819;81;21008;-83
2022/05/18 10:57:17;;;;;;;3.08;1.50;;;;;;;17.97;29.84;99730.57;1736111;81;21045;-84
2022/05/18 11:00:05;;;;;;;5.20;1.95;;;;;;;17.98;30.20;99737.52;1739065;81;21045;-83
2022/05/18 11:02:52;;;;;;;2.77;1.20;;;;;;;18.04;28.82;99723.62;1770162;81;21070;-82
2022/05/18 11:05:35;;;;;;;3.65;1.25;;;;;;;18.01;29.60;99727.72;1754323;81;20999;-82
2022/05/18 11:08:06;;;;;;;8.25;2.02;;;;;;;18.22;29.63;99727.65;1744878;81;21062;-82
2022/05/18 11:10:59;;;;;;;3.65;1.50;;;;;;;18.28;29.83;99722.97;1759807;81;21046;-83
2022/05/18 11:13:49;;;;;;;4.35;1.40;;;;;;;18.38;28.89;99733.92;1705040;81;21078;-83
2022/05/18 11:16:25;;;;;;;4.72;1.15;;;;;;;18.43;28.81;99754.28;1737083;81;20986;-84
2022/05/18 11:18:59;;;;;;;3.83;1.40;;;;;;;18.39;25.97;99748.78;1750149;81;21008;-84
2022/05/18 11:21:59;;;;;;;4.22;1.10;;;;;;;18.39;27.83;99747.45;1724667;82;20975;-84
2022/05/18 11:24:37;;;;;;;4.47;1.10;;;;;;;18.52;28.71;99748.19;1746111;81;20975;-85
2022/05/18 11:27:38;;;;;;;3.20;0.98;;;;;;;18.58;29.18;99751.84;1750019;81;20967;-84
2022/05/18 11:30:16;;;;;;;1.57;0.95;;;;;;;18.66;25.95;99756.28;1732757;81;21026;-84
2022/05/18 11:32:54;;;;;;;1.98;1.00;;;;;;;18.64;25.38;99755.50;1749090;81;21086;-83
2022/05/18 11:36:04;;;;;;;3.35;1.15;;;;;;;18.69;25.69;99764.05;1750466;81;21057;-85
2022/05/18 11:38:45;;;;;;;6.85;1.22;;;;;;;18.61;23.78;99763.56;1725269;81;21082;-83
2022/05/18 11:41:30;;;;;;;3.75;1.10;;;;;;;18.65;25.98;99757.22;1732443;81;21016;-82
2022/05/18 11:44:08;;;;;;;2.70;1.07;;;;;;;18.79;26.21;99761.83;1722104;81;20985;-84
2022/05/18 11:46:55;;;;;;;2.02;0.90;;;;;;;18.96;28.00;99757.95;1752640;81;21039;-84
2022/05/18 11:49:39;;;;;;;4.45;1.32;;;;;;;19.09;27.49;99754.23;1733428;81;21043;-83
2022/05/18 11:52:31;;;;;;;2.08;1.00;;;;;;;19.20;27.29;99757.19;1745185;81;21019;-84
2022/05/18 11:55:20;;;;;;;13.20;1.30;;;;;;;19.37;27.94;99748.41;1716176;82;21123;-83
2022/05/18 11:58:24;;;;;;;6.47;1.65;;;;;;;19.54;26.88;99750.20;1751915;81;21087;-82
2022/05/18 12:01:05;;;;;;;2.05;1.00;;;;;;;19.59;26.14;99774.53;1711560;82;21578;-82
2022/05/18 12:03:57;;;;;;;3.80;1.05;;;;;;;19.64;25.91;99755.38;1713679;82;20995;-83
2022/05/18 12:06:45;;;;;;;8.48;3.67;;;;;;;19.81;25.87;99754.52;1707439;82;21110;-82
2022/05/18 12:09:25;;;;;;;3.12;1.30;;;;;;;20.02;26.01;99762.25;1723639;82;21027;-82
2022/05/18 12:12:39;;;;;;;4.37;1.37;;;;;;;20.28;25.64;99756.87;1733993;82;21832;-83
2022/05/18 12:15:18;;;;;;;3.40;1.07;;;;;;;20.79;24.87;99744.38;1647830;86;21056;-84
2022/05/18 12:18:20;;;;;;;4.50;1.00;;;;;;;21.35;25.14;99753.91;1727788;82;20998;-84
2022/05/18 12:20:55;;;;;;;4.15;1.05;;;;;;;21.91;23.55;99759.88;1743976;82;21073;-85